Time;durP1;ratioP1;P1;durP2;ratioP2;P2;SDS_P1;SDS_P2;PMS_P1;PMS_P2;Temp;Humidity;BMP_temperature;BMP_pressure;BME280_temperature;BME280_humidity;BME280_pressure;Samples;Min_cycle;Max_cycle;Signal;HPM_P1;HPM_P2
2021/11/28 00:02:22;;;;;;;5.97;2.35;;;2.90;99.90;;;;;;5004247;28;20060;-69
2021/11/28 00:04:52;;;;;;;6.88;2.90;;;2.90;99.90;;;;;;4995951;28;20030;-69
2021/11/28 00:14:44;;;;;;;6.65;2.60;;;2.70;99.90;;;;;;5012327;28;20030;-68
2021/11/28 00:17:12;;;;;;;6.22;1.90;;;2.60;99.90;;;;;;5001441;28;20648;-68
2021/11/28 00:19:38;;;;;;;1.90;1.17;;;2.60;99.90;;;;;;5009103;28;20022;-68
2021/11/28 00:22:04;;;;;;;2.28;1.10;;;2.60;99.90;;;;;;5008293;28;20386;-68
2021/11/28 00:24:30;;;;;;;6.10;1.55;;;2.70;99.90;;;;;;5007144;28;20548;-68
2021/11/28 00:26:55;;;;;;;3.22;1.75;;;2.70;99.90;;;;;;5006756;28;20030;-68
2021/11/28 00:29:21;;;;;;;1.77;1.35;;;2.70;99.90;;;;;;5012008;28;20025;-69
2021/11/28 00:31:47;;;;;;;9.90;2.88;;;2.80;99.90;;;;;;5008835;28;20037;-68
2021/11/28 00:34:13;;;;;;;3.78;2.38;;;2.70;99.90;;;;;;5009094;28;20037;-68
2021/11/28 00:36:39;;;;;;;1.75;1.02;;;2.70;99.90;;;;;;5006587;28;20057;-69
2021/11/28 00:39:04;;;;;;;1.67;1.17;;;2.60;99.90;;;;;;5004465;28;20127;-68
2021/11/28 00:41:30;;;;;;;2.63;1.38;;;2.50;99.90;;;;;;5008112;28;20034;-68
2021/11/28 00:43:56;;;;;;;3.42;1.67;;;2.50;99.90;;;;;;5006013;28;20018;-68
2021/11/28 00:46:21;;;;;;;3.20;1.38;;;2.40;99.90;;;;;;5007235;28;20509;-68
2021/11/28 00:48:47;;;;;;;4.88;1.90;;;2.40;99.90;;;;;;5003696;28;20385;-68
2021/11/28 00:53:43;;;;;;;3.40;1.95;;;2.40;99.90;;;;;;5012828;28;20021;-68
2021/11/28 00:56:08;;;;;;;3.60;1.52;;;2.30;99.90;;;;;;5012729;28;20374;-68
2021/11/28 00:58:34;;;;;;;2.95;1.70;;;2.30;99.90;;;;;;5003532;28;20026;-68
2021/11/28 01:01:00;;;;;;;4.05;1.92;;;2.30;99.90;;;;;;5015533;28;20054;-68
2021/11/28 01:03:26;;;;;;;8.38;1.90;;;2.20;99.90;;;;;;5005215;28;20030;-68
2021/11/28 01:05:53;;;;;;;3.55;1.55;;;2.10;99.90;;;;;;5016646;28;20116;-68
2021/11/28 01:08:19;;;;;;;4.78;2.28;;;2.10;99.90;;;;;;4998989;28;20037;-68
2021/11/28 01:10:46;;;;;;;3.65;1.70;;;2.10;99.90;;;;;;5000066;28;20026;-68
2021/11/28 01:13:13;;;;;;;3.90;2.00;;;2.10;99.90;;;;;;4995765;28;20594;-68
2021/11/28 01:15:38;;;;;;;5.28;2.08;;;2.10;99.90;;;;;;4999185;28;20026;-68
2021/11/28 01:18:04;;;;;;;3.10;1.65;;;2.20;99.90;;;;;;5005834;28;20044;-68
2021/11/28 01:20:30;;;;;;;7.40;2.13;;;2.30;99.90;;;;;;5011084;28;20030;-68
2021/11/28 01:22:55;;;;;;;2.78;1.63;;;2.30;99.90;;;;;;5011735;28;20053;-68
2021/11/28 01:25:21;;;;;;;4.38;1.92;;;2.40;99.90;;;;;;5012549;28;20465;-68
2021/11/28 01:27:47;;;;;;;6.75;1.90;;;2.50;99.90;;;;;;5002801;28;20029;-68
2021/11/28 01:30:13;;;;;;;6.80;1.85;;;2.50;99.90;;;;;;5002214;28;20053;-68
2021/11/28 01:32:40;;;;;;;2.88;1.42;;;2.50;99.90;;;;;;5011128;28;20393;-68
2021/11/28 01:35:08;;;;;;;5.45;2.38;;;2.50;99.90;;;;;;5003212;28;20057;-68
2021/11/28 01:37:34;;;;;;;5.00;2.25;;;2.50;99.90;;;;;;5010375;28;20053;-68
2021/11/28 01:40:05;;;;;;;1.45;1.10;;;2.50;99.90;;;;;;5006268;28;20026;-68
2021/11/28 01:42:50;;;;;;;1.58;1.23;;;2.40;99.90;;;;;;4998353;28;20030;-68
2021/11/28 01:45:28;;;;;;;2.85;1.42;;;2.40;99.90;;;;;;5011521;28;20559;-68
2021/11/28 01:47:56;;;;;;;3.00;1.77;;;2.20;99.90;;;;;;5006516;28;20052;-68
2021/11/28 01:50:24;;;;;;;2.88;1.63;;;2.20;99.90;;;;;;5011908;28;20029;-68
2021/11/28 01:52:49;;;;;;;5.18;1.83;;;2.00;99.90;;;;;;5003211;28;20025;-69
2021/11/28 01:55:21;;;;;;;3.42;1.70;;;1.90;99.90;;;;;;5000488;28;20022;-68
2021/11/28 01:57:48;;;;;;;7.05;1.98;;;1.70;99.90;;;;;;5011484;28;20025;-68
2021/11/28 02:00:20;;;;;;;3.33;1.83;;;1.50;99.90;;;;;;5008906;28;20037;-68
2021/11/28 02:02:46;;;;;;;4.05;2.30;;;1.30;99.90;;;;;;5003777;28;20426;-68
2021/11/28 02:05:14;;;;;;;3.28;1.73;;;1.20;99.90;;;;;;5012473;28;20101;-68
2021/11/28 02:07:41;;;;;;;2.97;1.45;;;1.00;99.90;;;;;;5010778;28;20038;-68
2021/11/28 02:10:07;;;;;;;2.65;1.52;;;0.80;99.90;;;;;;5009845;28;20010;-68
2021/11/28 02:12:33;;;;;;;5.53;2.03;;;0.60;99.90;;;;;;5005423;28;20378;-68
2021/11/28 02:15:00;;;;;;;2.72;1.50;;;0.50;99.90;;;;;;5003962;28;20032;-68
2021/11/28 02:17:27;;;;;;;4.30;2.10;;;0.40;99.90;;;;;;5008943;28;20462;-68
2021/11/28 02:19:52;;;;;;;3.78;1.58;;;0.20;99.90;;;;;;5010935;28;20093;-68
2021/11/28 02:22:19;;;;;;;3.95;2.35;;;0.20;99.90;;;;;;5008553;28;20033;-68
2021/11/28 02:24:46;;;;;;;7.25;2.38;;;0.30;99.90;;;;;;5009875;28;20080;-68
2021/11/28 02:27:11;;;;;;;2.75;1.73;;;0.20;99.90;;;;;;5010101;28;20132;-68
2021/11/28 02:29:42;;;;;;;2.53;1.67;;;0.10;99.90;;;;;;5005200;28;20719;-68
2021/11/28 02:32:08;;;;;;;5.72;2.58;;;0.00;99.90;;;;;;5011208;28;20017;-68
2021/11/28 02:34:35;;;;;;;3.60;1.73;;;-0.10;99.90;;;;;;5007793;28;20026;-68
2021/11/28 02:37:02;;;;;;;6.57;1.90;;;-0.20;99.90;;;;;;5010184;28;20545;-68
2021/11/28 02:39:28;;;;;;;3.92;1.80;;;-0.20;99.90;;;;;;5012956;28;20120;-68
2021/11/28 02:41:54;;;;;;;5.55;1.92;;;-0.30;99.90;;;;;;5007305;28;20400;-68
2021/11/28 02:44:19;;;;;;;4.45;1.60;;;-0.50;99.90;;;;;;5007022;28;20029;-68
2021/11/28 02:46:45;;;;;;;3.53;2.35;;;-0.60;99.90;;;;;;5002644;28;20926;-68
2021/11/28 02:49:12;;;;;;;5.47;1.90;;;-0.60;99.90;;;;;;5007492;28;20317;-68
2021/11/28 02:51:39;;;;;;;3.28;1.58;;;-0.70;99.90;;;;;;5014737;28;20033;-68
2021/11/28 02:54:06;;;;;;;5.00;1.67;;;-0.80;99.90;;;;;;5007232;28;20026;-68
2021/11/28 02:56:33;;;;;;;2.47;1.30;;;-0.90;99.90;;;;;;5011804;28;20026;-68
2021/11/28 02:59:00;;;;;;;4.15;1.85;;;-0.80;99.90;;;;;;5003671;28;20057;-68
2021/11/28 03:01:26;;;;;;;4.78;2.13;;;-0.80;99.90;;;;;;5012127;28;20052;-68
2021/11/28 03:03:53;;;;;;;3.70;1.75;;;-0.70;99.90;;;;;;5016034;28;20029;-68
2021/11/28 03:06:19;;;;;;;8.52;2.20;;;-0.70;99.90;;;;;;5000760;28;20438;-68
2021/11/28 03:08:46;;;;;;;3.08;1.42;;;-0.50;99.90;;;;;;5006992;28;20034;-68
2021/11/28 03:11:14;;;;;;;5.03;2.22;;;-0.30;99.90;;;;;;5011672;28;20032;-68
2021/11/28 03:13:45;;;;;;;4.95;2.10;;;-0.30;99.90;;;;;;5010597;28;20477;-68
2021/11/28 03:16:15;;;;;;;2.53;1.45;;;-0.40;99.90;;;;;;4999203;28;20572;-69
2021/11/28 03:18:40;;;;;;;3.60;1.67;;;-0.40;99.90;;;;;;5013339;28;20034;-68
2021/11/28 03:21:14;;;;;;;4.57;2.38;;;-0.40;99.90;;;;;;5001715;28;20091;-68
2021/11/28 03:23:42;;;;;;;4.75;1.83;;;-0.60;99.90;;;;;;5006497;28;20117;-68
2021/11/28 03:26:13;;;;;;;4.60;2.10;;;-0.50;99.90;;;;;;5017097;28;20038;-68
2021/11/28 03:28:50;;;;;;;1.88;1.20;;;-0.40;99.90;;;;;;5006487;28;20545;-68
2021/11/28 03:31:17;;;;;;;4.00;2.15;;;-0.30;99.90;;;;;;5010457;28;20053;-68
2021/11/28 03:33:43;;;;;;;3.50;1.88;;;-0.30;99.90;;;;;;5001363;28;20112;-68
2021/11/28 03:36:10;;;;;;;2.90;1.42;;;-0.40;99.90;;;;;;5011997;28;20036;-68
2021/11/28 03:38:37;;;;;;;3.42;1.55;;;-0.60;99.90;;;;;;5001248;28;20068;-68
2021/11/28 03:41:04;;;;;;;3.60;2.00;;;-0.70;99.90;;;;;;4996223;28;20018;-68
2021/11/28 03:43:30;;;;;;;3.67;2.08;;;-0.80;99.90;;;;;;4998059;28;20049;-68
2021/11/28 03:45:56;;;;;;;5.30;1.70;;;-0.70;99.90;;;;;;4996846;28;20038;-68
2021/11/28 03:48:21;;;;;;;2.03;1.27;;;-0.70;99.90;;;;;;5005577;28;20034;-68
2021/11/28 03:50:47;;;;;;;4.40;1.67;;;-0.90;99.90;;;;;;4995035;28;20033;-68
2021/11/28 03:53:13;;;;;;;2.75;1.50;;;-1.00;99.90;;;;;;5007180;28;20028;-68
2021/11/28 03:55:39;;;;;;;7.00;2.65;;;-1.20;99.90;;;;;;5010129;28;20060;-68
2021/11/28 03:58:07;;;;;;;3.55;2.17;;;-1.30;99.90;;;;;;4997561;28;20021;-68
2021/11/28 04:00:33;;;;;;;3.47;1.80;;;-1.40;99.90;;;;;;5002658;28;20314;-68
2021/11/28 04:03:01;;;;;;;3.85;2.13;;;-1.40;99.90;;;;;;4994077;28;20120;-68
2021/11/28 04:05:26;;;;;;;5.90;2.13;;;-1.50;99.90;;;;;;5003413;28;20032;-68
2021/11/28 04:07:53;;;;;;;2.13;1.33;;;-1.60;99.90;;;;;;4995790;28;20031;-68
2021/11/28 04:10:19;;;;;;;4.10;1.63;;;-1.50;99.90;;;;;;5004007;28;20022;-68
2021/11/28 04:12:44;;;;;;;4.60;1.45;;;-1.50;99.90;;;;;;5010890;28;20076;-68
2021/11/28 04:15:10;;;;;;;2.55;1.42;;;-1.60;99.90;;;;;;4994172;28;20032;-68
2021/11/28 04:17:36;;;;;;;4.07;1.80;;;-1.70;99.90;;;;;;5004207;28;20037;-68
2021/11/28 04:20:04;;;;;;;2.83;1.55;;;-1.80;99.90;;;;;;5004360;28;20025;-68
2021/11/28 04:22:29;;;;;;;1.75;1.27;;;-1.80;99.90;;;;;;5004790;28;20022;-68
2021/11/28 04:24:55;;;;;;;2.10;1.38;;;-1.50;99.90;;;;;;5002083;28;20089;-68
2021/11/28 04:27:21;;;;;;;9.90;3.00;;;-1.20;99.90;;;;;;5012081;28;20033;-68
2021/11/28 04:29:47;;;;;;;3.40;1.67;;;-1.10;99.90;;;;;;5012733;28;20030;-68
2021/11/28 04:32:13;;;;;;;2.78;1.67;;;-0.90;99.90;;;;;;5004311;28;20021;-68
2021/11/28 04:34:39;;;;;;;7.80;1.50;;;-0.70;99.90;;;;;;5004326;28;20453;-68
2021/11/28 04:37:05;;;;;;;3.33;2.00;;;-0.60;99.90;;;;;;4993756;28;20057;-68
2021/11/28 04:39:31;;;;;;;4.97;2.42;;;-0.50;99.90;;;;;;5006063;28;20026;-68
2021/11/28 04:41:56;;;;;;;3.70;1.77;;;-0.40;99.90;;;;;;5002221;28;20060;-68
2021/11/28 04:44:23;;;;;;;3.40;1.42;;;-0.30;99.90;;;;;;5005153;28;20433;-68
2021/11/28 04:46:49;;;;;;;3.63;1.90;;;-0.30;99.90;;;;;;4994490;28;20639;-68
2021/11/28 04:49:15;;;;;;;5.85;1.90;;;-0.10;99.90;;;;;;5010986;28;20034;-68
2021/11/28 04:51:41;;;;;;;8.02;2.03;;;-0.10;99.90;;;;;;5000494;28;20080;-68
2021/11/28 04:54:08;;;;;;;3.28;1.42;;;0.00;99.90;;;;;;4995371;28;20110;-68
2021/11/28 04:56:34;;;;;;;1.77;1.13;;;0.10;99.90;;;;;;5005945;28;20057;-68
2021/11/28 04:58:59;;;;;;;8.13;2.00;;;0.10;99.90;;;;;;5008714;28;20065;-69
2021/11/28 05:01:25;;;;;;;2.78;1.73;;;0.00;99.90;;;;;;5001875;28;20127;-68
2021/11/28 05:03:51;;;;;;;4.55;1.95;;;0.10;99.90;;;;;;4989878;28;20117;-69
2021/11/28 05:06:17;;;;;;;3.50;1.65;;;0.00;99.90;;;;;;5007965;28;20034;-68
2021/11/28 05:08:43;;;;;;;5.38;1.88;;;0.10;99.90;;;;;;5000470;28;20512;-68
2021/11/28 05:11:08;;;;;;;3.65;1.80;;;0.20;99.90;;;;;;4998012;28;20030;-68
2021/11/28 05:13:34;;;;;;;3.22;1.83;;;0.10;99.90;;;;;;5014749;28;20092;-68
2021/11/28 05:16:00;;;;;;;3.38;1.70;;;0.10;99.90;;;;;;5004546;28;20390;-68
2021/11/28 05:18:25;;;;;;;3.38;1.67;;;0.10;99.90;;;;;;5012086;28;20033;-68
2021/11/28 05:20:51;;;;;;;5.97;1.95;;;0.10;99.90;;;;;;5005168;28;20105;-68
2021/11/28 05:23:17;;;;;;;4.68;1.90;;;0.20;99.90;;;;;;5004667;28;20022;-68
2021/11/28 05:25:43;;;;;;;3.42;1.95;;;0.20;99.90;;;;;;4996319;28;20481;-68
2021/11/28 05:28:10;;;;;;;3.38;1.52;;;0.30;99.90;;;;;;5009562;28;20183;-69
2021/11/28 05:30:36;;;;;;;4.90;2.15;;;0.30;99.90;;;;;;5011430;28;20022;-68
2021/11/28 05:33:02;;;;;;;6.07;2.22;;;0.30;99.90;;;;;;4995411;28;20425;-69
2021/11/28 05:35:28;;;;;;;4.22;1.92;;;0.40;99.90;;;;;;4995743;28;20026;-68
2021/11/28 05:37:54;;;;;;;5.32;2.28;;;0.60;99.90;;;;;;5006000;28;20025;-69
2021/11/28 05:40:20;;;;;;;5.05;2.75;;;0.60;99.90;;;;;;5012837;28;20100;-69
2021/11/28 05:42:49;;;;;;;6.80;3.17;;;0.60;99.90;;;;;;4995782;28;20052;-69
2021/11/28 05:45:16;;;;;;;6.03;2.58;;;0.60;99.90;;;;;;4999992;28;20026;-68
2021/11/28 05:47:41;;;;;;;4.65;1.90;;;0.60;99.90;;;;;;5005827;28;20349;-68
2021/11/28 05:50:08;;;;;;;3.90;1.92;;;0.60;99.90;;;;;;5001868;28;20290;-68
2021/11/28 05:52:34;;;;;;;9.80;2.30;;;0.70;99.90;;;;;;5020240;28;20521;-68
2021/11/28 05:55:01;;;;;;;4.25;1.92;;;0.60;99.90;;;;;;5009533;28;20084;-68
2021/11/28 05:57:27;;;;;;;7.43;1.77;;;0.60;99.90;;;;;;5006755;28;20030;-68
2021/11/28 05:59:53;;;;;;;7.90;2.58;;;0.70;99.90;;;;;;5007598;28;20037;-69
2021/11/28 06:02:18;;;;;;;5.60;2.85;;;0.80;99.90;;;;;;4999644;28;20097;-68
2021/11/28 06:04:44;;;;;;;6.03;3.38;;;1.00;99.90;;;;;;5003961;28;20029;-68
2021/11/28 06:07:10;;;;;;;8.68;2.58;;;1.00;99.90;;;;;;5007272;28;20490;-68
2021/11/28 06:09:35;;;;;;;5.65;2.60;;;0.90;99.90;;;;;;4992437;28;20030;-69
2021/11/28 06:12:01;;;;;;;5.40;2.65;;;1.00;99.90;;;;;;5008964;28;20030;-68
2021/11/28 06:14:27;;;;;;;7.30;3.75;;;1.00;99.90;;;;;;4991892;28;20038;-68
2021/11/28 06:16:52;;;;;;;6.07;2.15;;;1.20;99.90;;;;;;5006959;28;20089;-68
2021/11/28 06:19:18;;;;;;;5.40;2.55;;;1.30;99.90;;;;;;4990600;28;20034;-68
2021/11/28 06:21:43;;;;;;;6.03;2.20;;;1.30;99.90;;;;;;5000910;28;20029;-68
2021/11/28 06:24:09;;;;;;;3.92;1.83;;;1.40;99.90;;;;;;5001202;28;20026;-68
2021/11/28 06:26:35;;;;;;;5.82;2.45;;;1.50;99.90;;;;;;4996743;28;20058;-68
2021/11/28 06:29:01;;;;;;;15.95;3.08;;;1.50;99.90;;;;;;5000007;28;20146;-68
2021/11/28 06:31:26;;;;;;;9.85;2.22;;;1.40;99.90;;;;;;4999607;28;20278;-68
2021/11/28 06:33:52;;;;;;;6.30;2.38;;;1.30;99.90;;;;;;4998288;28;20037;-68
2021/11/28 06:36:18;;;;;;;5.88;2.10;;;1.20;99.90;;;;;;5006686;28;20390;-69
2021/11/28 06:38:44;;;;;;;5.75;2.45;;;1.10;99.90;;;;;;5009235;28;20424;-69
2021/11/28 06:41:09;;;;;;;4.35;1.95;;;1.00;99.90;;;;;;5011035;28;20037;-69
2021/11/28 06:43:35;;;;;;;7.50;3.00;;;1.10;99.90;;;;;;4999969;28;20033;-69
2021/11/28 06:46:02;;;;;;;5.40;2.35;;;1.20;99.90;;;;;;4996077;28;20105;-68
2021/11/28 06:48:28;;;;;;;5.80;2.45;;;1.20;99.90;;;;;;5004459;28;20064;-68
2021/11/28 06:50:53;;;;;;;4.85;1.83;;;1.10;99.90;;;;;;4995156;28;20026;-68
2021/11/28 06:53:19;;;;;;;6.45;2.25;;;1.30;99.90;;;;;;5003837;28;20442;-68
2021/11/28 06:55:45;;;;;;;5.30;2.35;;;1.30;99.90;;;;;;4995065;28;20311;-68
2021/11/28 06:58:11;;;;;;;4.60;1.95;;;1.20;99.90;;;;;;4994376;28;20432;-68
2021/11/28 07:00:37;;;;;;;7.13;2.72;;;1.30;99.90;;;;;;4998657;28;20128;-68
2021/11/28 07:03:03;;;;;;;7.50;2.50;;;1.30;99.90;;;;;;4994601;28;20034;-68
2021/11/28 07:05:29;;;;;;;5.78;2.50;;;1.30;99.90;;;;;;5003478;28;20513;-68
2021/11/28 07:07:54;;;;;;;5.57;2.38;;;1.20;99.90;;;;;;5009073;28;20127;-68
2021/11/28 07:10:20;;;;;;;4.22;2.10;;;1.20;99.90;;;;;;5011992;28;20508;-68
2021/11/28 07:12:46;;;;;;;4.82;2.38;;;1.20;99.90;;;;;;5015011;28;20057;-68
2021/11/28 07:15:12;;;;;;;5.28;2.65;;;1.40;99.90;;;;;;4995680;28;20136;-68
2021/11/28 07:17:38;;;;;;;6.93;2.55;;;1.50;99.90;;;;;;5013123;28;20033;-68
2021/11/28 07:20:06;;;;;;;6.32;2.67;;;1.50;99.90;;;;;;5007736;28;20026;-68
2021/11/28 07:22:33;;;;;;;7.25;3.08;;;1.50;99.90;;;;;;5000485;28;20038;-68
2021/11/28 07:24:59;;;;;;;5.60;2.15;;;1.50;99.90;;;;;;5011819;28;20124;-68
2021/11/28 07:27:25;;;;;;;6.65;2.15;;;1.50;99.90;;;;;;4995848;28;20026;-68
2021/11/28 07:29:51;;;;;;;6.07;2.97;;;1.50;99.90;;;;;;5000416;28;20352;-68
2021/11/28 07:32:16;;;;;;;6.28;2.53;;;1.40;99.90;;;;;;5001650;28;20022;-68
2021/11/28 07:34:42;;;;;;;4.63;1.80;;;1.40;99.90;;;;;;5009930;28;20034;-68
2021/11/28 07:37:08;;;;;;;5.57;2.30;;;1.40;99.90;;;;;;5005294;28;20485;-68
2021/11/28 07:39:33;;;;;;;4.85;2.17;;;1.60;99.90;;;;;;4995951;28;20026;-68
2021/11/28 07:41:59;;;;;;;9.02;2.75;;;1.70;99.90;;;;;;5002491;28;20073;-68
2021/11/28 07:44:25;;;;;;;9.73;4.25;;;1.60;99.90;;;;;;5005293;28;20479;-68
2021/11/28 07:46:50;;;;;;;5.13;2.50;;;1.60;99.90;;;;;;4995665;28;20037;-68
2021/11/28 07:49:16;;;;;;;7.45;3.05;;;1.50;99.90;;;;;;5012211;28;20061;-68
2021/11/28 07:51:42;;;;;;;6.53;2.28;;;1.50;99.90;;;;;;5000704;28;20026;-68
2021/11/28 07:54:07;;;;;;;5.45;2.20;;;1.60;99.90;;;;;;5004717;28;20025;-68
2021/11/28 07:56:34;;;;;;;5.80;2.53;;;1.50;99.90;;;;;;5009701;28;20085;-68
2021/11/28 07:58:59;;;;;;;5.70;2.47;;;1.40;99.90;;;;;;5004276;28;20579;-68
2021/11/28 08:01:25;;;;;;;4.57;2.03;;;1.50;99.90;;;;;;5002558;28;20073;-68
2021/11/28 08:03:51;;;;;;;4.45;1.65;;;1.80;99.90;;;;;;4997358;28;20037;-68
2021/11/28 08:06:17;;;;;;;6.15;2.40;;;2.00;99.90;;;;;;5009212;28;20036;-68
2021/11/28 08:08:43;;;;;;;4.03;2.40;;;2.10;99.90;;;;;;5005118;28;20128;-68
2021/11/28 08:11:09;;;;;;;9.02;3.28;;;2.00;99.90;;;;;;5002221;28;20100;-69
2021/11/28 08:13:34;;;;;;;4.22;2.22;;;1.90;99.90;;;;;;5003706;28;20584;-69
2021/11/28 08:16:00;;;;;;;4.60;1.92;;;1.90;99.90;;;;;;5004882;28;20029;-69
2021/11/28 08:18:26;;;;;;;6.20;2.38;;;2.00;99.90;;;;;;5001582;28;20034;-69
2021/11/28 08:20:52;;;;;;;7.30;2.40;;;2.10;99.90;;;;;;4998526;28;20021;-68
2021/11/28 08:23:18;;;;;;;10.60;2.97;;;2.10;99.90;;;;;;5004059;28;20100;-68
2021/11/28 08:25:43;;;;;;;9.57;3.58;;;2.20;99.90;;;;;;4997889;28;20034;-69
2021/11/28 08:28:09;;;;;;;6.10;3.08;;;2.20;99.90;;;;;;4992821;28;20056;-69
2021/11/28 08:30:37;;;;;;;9.82;2.75;;;2.10;99.90;;;;;;5015737;28;20018;-68
2021/11/28 08:33:04;;;;;;;7.05;3.35;;;2.00;99.90;;;;;;5017989;28;20026;-68
2021/11/28 08:35:31;;;;;;;4.75;1.80;;;1.90;99.90;;;;;;5014254;28;20410;-68
2021/11/28 08:37:59;;;;;;;3.80;1.92;;;2.10;99.90;;;;;;5017486;28;20021;-68
2021/11/28 08:40:27;;;;;;;17.83;2.65;;;2.30;99.90;;;;;;5013576;28;20091;-68
2021/11/28 08:42:53;;;;;;;8.18;3.40;;;2.40;99.90;;;;;;5013242;28;20040;-68
2021/11/28 08:45:18;;;;;;;9.15;3.10;;;2.40;99.90;;;;;;5016370;28;20810;-68
2021/11/28 08:47:46;;;;;;;9.65;3.35;;;2.50;99.90;;;;;;5016932;28;20018;-68
2021/11/28 08:50:16;;;;;;;8.35;3.35;;;2.50;99.90;;;;;;5006018;28;20101;-69
2021/11/28 08:52:44;;;;;;;6.10;2.80;;;2.50;99.90;;;;;;5009638;28;20033;-68
2021/11/28 08:55:10;;;;;;;8.52;3.90;;;2.70;99.90;;;;;;5006616;28;20505;-68
2021/11/28 08:57:36;;;;;;;8.48;3.88;;;2.80;99.90;;;;;;5001039;28;20050;-68
2021/11/28 09:00:08;;;;;;;10.75;4.35;;;2.80;99.90;;;;;;5012754;28;20068;-67
2021/11/28 09:02:33;;;;;;;11.50;3.55;;;2.90;99.90;;;;;;5017445;28;20116;-67
2021/11/28 09:04:59;;;;;;;10.90;3.97;;;2.90;99.90;;;;;;5012500;28;20159;-69
2021/11/28 09:07:24;;;;;;;7.93;4.15;;;3.00;99.90;;;;;;5015593;28;20037;-69
2021/11/28 09:09:50;;;;;;;10.63;3.58;;;3.10;99.90;;;;;;5012836;28;20164;-69
2021/11/28 09:12:16;;;;;;;8.75;2.92;;;3.30;99.90;;;;;;5017442;28;20462;-69
2021/11/28 09:14:42;;;;;;;10.48;4.28;;;3.30;99.90;;;;;;5009598;28;20030;-69
2021/11/28 09:17:07;;;;;;;9.60;3.38;;;3.40;99.90;;;;;;5004428;28;20028;-69
2021/11/28 09:19:56;;;;;;;8.95;3.10;;;3.70;99.90;;;;;;4998358;28;20033;-69
2021/11/28 09:24:23;;;;;;;7.25;3.65;;;3.70;99.90;;;;;;5009549;28;20083;-69
2021/11/28 09:25:07;;;;;;;8.75;3.65;;;3.80;99.90;;;;;;5016748;28;20326;-69
2021/11/28 09:27:33;;;;;;;8.88;3.30;;;3.90;99.90;;;;;;5018688;28;20033;-69
2021/11/28 09:29:59;;;;;;;7.82;3.22;;;4.10;99.90;;;;;;5017770;28;20112;-68
2021/11/28 09:32:25;;;;;;;9.07;3.45;;;4.40;99.90;;;;;;5016518;28;20033;-69
2021/11/28 09:34:50;;;;;;;7.57;3.60;;;4.50;99.90;;;;;;5012115;28;20034;-69
2021/11/28 09:37:16;;;;;;;4.60;2.22;;;4.90;99.90;;;;;;5010214;28;20030;-69
2021/11/28 09:39:45;;;;;;;9.43;3.90;;;5.10;99.90;;;;;;4999602;28;20022;-69
2021/11/28 09:42:13;;;;;;;6.82;2.38;;;4.90;99.90;;;;;;5003435;28;20405;-69
2021/11/28 09:44:41;;;;;;;8.82;4.13;;;4.70;99.90;;;;;;4999976;28;20027;-69
2021/11/28 09:47:10;;;;;;;9.85;4.10;;;4.50;99.90;;;;;;4999615;28;20117;-69
2021/11/28 09:49:37;;;;;;;6.85;3.20;;;4.80;99.90;;;;;;5004204;28;20059;-69
2021/11/28 09:52:11;;;;;;;7.05;2.15;;;4.70;99.90;;;;;;4998451;28;20038;-69
2021/11/28 09:54:40;;;;;;;5.18;2.83;;;4.60;99.90;;;;;;5004279;28;20030;-69
2021/11/28 09:57:10;;;;;;;5.78;3.03;;;4.40;99.90;;;;;;5005206;28;20030;-69
2021/11/28 09:59:36;;;;;;;5.05;2.13;;;4.40;99.90;;;;;;5003300;28;20088;-69
2021/11/28 10:02:03;;;;;;;8.07;2.53;;;4.30;99.90;;;;;;5002079;28;20494;-69
2021/11/28 10:04:28;;;;;;;5.15;2.38;;;4.30;99.90;;;;;;5004397;28;20087;-69
2021/11/28 10:06:55;;;;;;;5.75;2.30;;;4.30;99.90;;;;;;5002943;28;20029;-69
2021/11/28 10:09:21;;;;;;;8.23;2.30;;;4.40;99.90;;;;;;5000090;28;20326;-69
2021/11/28 10:12:08;;;;;;;3.92;2.15;;;4.20;99.90;;;;;;5014432;28;20033;-69
2021/11/28 10:14:33;;;;;;;10.35;3.70;;;4.10;99.90;;;;;;5003043;28;20084;-69
2021/11/28 10:16:59;;;;;;;5.93;2.63;;;3.90;99.90;;;;;;5009033;28;20037;-69
2021/11/28 10:19:25;;;;;;;7.07;2.80;;;4.10;99.90;;;;;;5009008;28;20359;-69
2021/11/28 10:21:50;;;;;;;9.25;3.60;;;5.00;99.90;;;;;;4996157;28;20038;-69
2021/11/28 10:24:17;;;;;;;9.52;2.80;;;6.80;99.90;;;;;;5003839;28;20088;-70
2021/11/28 10:27:05;;;;;;;4.95;2.28;;;8.10;99.90;;;;;;5002405;28;20651;-69
2021/11/28 10:29:40;;;;;;;11.85;3.67;;;8.90;99.90;;;;;;4992153;28;20121;-69
2021/11/28 10:32:08;;;;;;;4.85;2.15;;;9.50;99.90;;;;;;5007331;28;20575;-69
2021/11/28 10:34:42;;;;;;;10.68;4.13;;;9.60;99.90;;;;;;5019889;28;20584;-69
2021/11/28 10:37:19;;;;;;;15.32;3.50;;;8.30;99.90;;;;;;5007015;28;20030;-69
2021/11/28 10:39:54;;;;;;;7.68;3.22;;;7.70;99.90;;;;;;5007446;28;20502;-69
2021/11/28 10:42:24;;;;;;;8.35;3.40;;;7.40;99.90;;;;;;5014960;28;20512;-69
2021/11/28 10:45:21;;;;;;;9.40;3.78;;;6.80;99.90;;;;;;5008650;28;20457;-69
2021/11/28 10:47:56;;;;;;;12.75;3.78;;;6.60;99.90;;;;;;5007416;28;20384;-69
2021/11/28 10:50:26;;;;;;;12.57;4.30;;;6.60;99.90;;;;;;5011069;28;20473;-69
2021/11/28 10:53:09;;;;;;;8.23;3.80;;;6.20;99.90;;;;;;5011497;28;20029;-69
2021/11/28 10:55:42;;;;;;;14.35;3.88;;;5.80;99.90;;;;;;5010928;28;20037;-69
2021/11/28 10:58:15;;;;;;;10.60;4.38;;;5.80;99.90;;;;;;5010529;28;20471;-69
2021/11/28 11:01:06;;;;;;;14.35;3.75;;;5.90;99.90;;;;;;5018240;28;20153;-69
2021/11/28 11:03:37;;;;;;;12.73;5.07;;;5.70;99.90;;;;;;5006640;28;20025;-69
2021/11/28 11:06:16;;;;;;;12.75;5.22;;;5.50;99.90;;;;;;5006797;28;20031;-69
2021/11/28 11:08:42;;;;;;;11.00;5.32;;;5.70;99.90;;;;;;5008824;28;20025;-69
2021/11/28 11:11:11;;;;;;;10.32;4.07;;;5.70;99.90;;;;;;5011452;28;20350;-69
2021/11/28 11:13:57;;;;;;;13.57;3.78;;;5.50;99.90;;;;;;5003617;28;20022;-69
2021/11/28 11:16:39;;;;;;;9.85;4.30;;;5.50;99.90;;;;;;5013332;28;20524;-68
2021/11/28 11:19:39;;;;;;;12.77;4.28;;;5.40;99.90;;;;;;4995837;28;20126;-68
2021/11/28 11:22:25;;;;;;;12.98;3.85;;;5.40;99.90;;;;;;5007857;28;20037;-69
2021/11/28 11:24:57;;;;;;;14.30;4.95;;;5.30;99.90;;;;;;5007697;28;20034;-69
2021/11/28 11:27:35;;;;;;;10.85;4.43;;;5.30;99.90;;;;;;4996755;28;20053;-69
2021/11/28 11:30:05;;;;;;;8.57;3.92;;;5.30;99.90;;;;;;5011447;28;20126;-68
2021/11/28 11:32:41;;;;;;;;;;;5.60;99.90;;;;;;4990521;28;20037;-68
2021/11/28 11:35:09;;;;;;;7.88;2.40;;;5.80;99.90;;;;;;5011436;28;19909;-68
2021/11/28 11:37:37;;;;;;;15.48;5.60;;;5.60;99.90;;;;;;5011043;28;20041;-68
2021/11/28 11:40:09;;;;;;;16.88;4.95;;;5.60;99.90;;;;;;5006368;28;20033;-68
2021/11/28 11:42:39;;;;;;;8.10;3.17;;;5.60;99.90;;;;;;5000070;28;20390;-69
2021/11/28 11:45:08;;;;;;;8.98;3.05;;;5.60;99.90;;;;;;5002326;28;20050;-68
2021/11/28 11:47:34;;;;;;;11.50;4.32;;;5.60;99.90;;;;;;5003325;28;20181;-68
2021/11/28 11:50:00;;;;;;;14.13;4.70;;;5.60;99.90;;;;;;5002304;28;20457;-67
2021/11/28 11:52:26;;;;;;;12.00;4.18;;;5.80;99.90;;;;;;5014521;28;20021;-67
2021/11/28 11:54:58;;;;;;;7.75;3.55;;;5.90;99.90;;;;;;5013652;28;20677;-67
2021/11/28 11:57:32;;;;;;;11.55;4.45;;;5.60;99.90;;;;;;5007864;28;20381;-67
2021/11/28 12:00:08;;;;;;;12.55;5.00;;;5.50;99.90;;;;;;5004551;28;20026;-69
2021/11/28 12:02:38;;;;;;;8.95;4.13;;;5.50;99.90;;;;;;5007624;28;20421;-69
2021/11/28 12:05:23;;;;;;;9.23;3.10;;;5.60;99.90;;;;;;5004909;28;20076;-69
2021/11/28 12:07:50;;;;;;;13.23;3.35;;;5.60;99.90;;;;;;4996051;28;20034;-69
2021/11/28 12:10:27;;;;;;;12.65;4.75;;;5.50;99.90;;;;;;5011921;28;20397;-69
2021/11/28 12:12:53;;;;;;;11.40;4.22;;;5.30;99.90;;;;;;5016962;28;20409;-69
2021/11/28 12:15:28;;;;;;;12.02;4.68;;;5.20;99.90;;;;;;4996734;28;20030;-69
2021/11/28 12:17:55;;;;;;;9.57;4.05;;;5.30;99.90;;;;;;4998103;28;20030;-69
2021/11/28 12:20:42;;;;;;;10.18;4.60;;;5.50;99.90;;;;;;5011718;28;20029;-69
2021/11/28 12:23:08;;;;;;;11.30;3.92;;;5.80;99.90;;;;;;5008458;28;20029;-69
2021/11/28 12:25:38;;;;;;;11.65;4.97;;;6.00;99.90;;;;;;5017347;28;20084;-69
2021/11/28 12:28:32;;;;;;;11.02;4.20;;;5.90;99.90;;;;;;4996458;28;20481;-69
2021/11/28 12:31:03;;;;;;;10.00;4.30;;;6.10;99.90;;;;;;4995173;28;20031;-69
2021/11/28 12:33:54;;;;;;;15.57;5.82;;;6.00;99.90;;;;;;5003524;28;20553;-69
2021/11/28 12:36:32;;;;;;;12.23;5.28;;;5.70;99.90;;;;;;5013563;28;20648;-69
2021/11/28 12:39:00;;;;;;;16.75;5.72;;;5.50;99.90;;;;;;5007836;28;20109;-69
2021/11/28 12:41:57;;;;;;;18.15;5.55;;;5.50;99.90;;;;;;5008170;28;20029;-69
2021/11/28 12:44:29;;;;;;;9.73;4.50;;;5.50;99.90;;;;;;4988364;28;20049;-69
2021/11/28 12:46:56;;;;;;;11.27;4.28;;;5.80;99.90;;;;;;5006931;28;20425;-69
2021/11/28 12:49:28;;;;;;;10.40;4.03;;;6.00;99.90;;;;;;4998799;28;20051;-69
2021/11/28 12:51:55;;;;;;;8.82;4.40;;;5.90;99.90;;;;;;5003393;28;20026;-69
2021/11/28 12:54:28;;;;;;;5.05;2.65;;;5.90;99.90;;;;;;5006859;28;20589;-69
2021/11/28 12:57:19;;;;;;;9.68;3.88;;;5.90;99.90;;;;;;5002144;28;20030;-69
2021/11/28 13:00:09;;;;;;;8.07;3.88;;;5.80;99.90;;;;;;5000033;28;20415;-69
2021/11/28 13:02:58;;;;;;;;;;;5.50;99.90;;;;;;4998398;28;20038;-69
2021/11/28 13:05:35;;;;;;;7.72;3.60;;;5.60;99.90;;;;;;4985257;28;20271;-69
2021/11/28 13:08:01;;;;;;;9.93;4.47;;;5.80;99.90;;;;;;4998255;28;20026;-69
2021/11/28 13:10:35;;;;;;;6.43;2.75;;;6.00;99.90;;;;;;5006433;28;20057;-70
2021/11/28 13:13:20;;;;;;;8.68;3.65;;;6.00;99.90;;;;;;5007176;28;20113;-70